createdAt,value
2023-03-21T00:02:13.699Z,-1.36
2023-03-21T00:04:52.288Z,-1.36
2023-03-21T00:07:22.420Z,-1.35
2023-03-21T00:09:52.400Z,-1.34
2023-03-21T00:12:26.075Z,-1.34
2023-03-21T00:14:56.474Z,-1.36
2023-03-21T00:17:25.528Z,-1.34
2023-03-21T00:19:54.724Z,-1.34
2023-03-21T00:22:23.877Z,-1.35
2023-03-21T00:24:53.017Z,-1.33
2023-03-21T00:27:44.887Z,-1.29
2023-03-21T00:30:12.333Z,-1.23
2023-03-21T00:32:54.999Z,-1.20
2023-03-21T00:38:19.997Z,-1.13
2023-03-21T00:40:49.403Z,-1.11
2023-03-21T00:43:19.604Z,-1.10
2023-03-21T00:45:48.406Z,-1.14
2023-03-21T00:48:19.220Z,-1.17
2023-03-21T00:50:48.030Z,-1.20
2023-03-21T00:53:17.350Z,-1.25
2023-03-21T00:55:51.588Z,-1.31
2023-03-21T00:58:23.776Z,-1.34
2023-03-21T01:00:52.278Z,-1.33
2023-03-21T01:03:25.155Z,-1.31
2023-03-21T01:06:07.356Z,-1.28
2023-03-21T01:08:51.747Z,-1.26
2023-03-21T01:11:23.536Z,-1.25
2023-03-21T01:13:59.729Z,-1.24
2023-03-21T01:16:36.763Z,-1.21
2023-03-21T01:19:09.448Z,-1.19
2023-03-21T01:21:41.216Z,-1.16
2023-03-21T01:24:09.959Z,-1.14
2023-03-21T01:26:39.355Z,-1.13
2023-03-21T01:29:08.394Z,-1.11
2023-03-21T01:31:39.135Z,-1.09
2023-03-21T01:34:08.895Z,-1.08
2023-03-21T01:36:38.080Z,-1.07
2023-03-21T01:39:10.726Z,-1.07
2023-03-21T01:41:44.002Z,-1.06
2023-03-21T01:44:31.826Z,-1.07
2023-03-21T01:47:10.548Z,-1.07
2023-03-21T01:49:46.395Z,-1.05
2023-03-21T01:52:37.518Z,-1.05
2023-03-21T01:55:12.560Z,-1.08
2023-03-21T01:58:04.910Z,-1.09
2023-03-21T02:00:41.704Z,-1.07
2023-03-21T02:03:33.299Z,-1.08
2023-03-21T02:06:37.681Z,-1.11
2023-03-21T02:09:15.124Z,-1.14
2023-03-21T02:11:51.207Z,-1.14
2023-03-21T02:14:29.066Z,-1.11
2023-03-21T02:17:18.946Z,-1.06
2023-03-21T02:20:13.562Z,-0.99
2023-03-21T02:23:02.117Z,-0.95
2023-03-21T02:25:56.535Z,-0.91
2023-03-21T02:28:30.621Z,-0.87
2023-03-21T02:31:22.060Z,-0.83
2023-03-21T02:34:10.466Z,-0.78
2023-03-21T02:36:56.429Z,-0.75
2023-03-21T02:39:28.380Z,-0.77
2023-03-21T02:42:27.501Z,-0.77
2023-03-21T02:45:31.395Z,-0.75
2023-03-21T02:48:04.802Z,-0.75
2023-03-21T02:50:43.774Z,-0.76
2023-03-21T02:53:15.028Z,-0.78
2023-03-21T02:55:44.433Z,-0.80
2023-03-21T02:58:16.898Z,-0.79
2023-03-21T03:00:49.928Z,-0.77
2023-03-21T03:03:34.604Z,-0.75
2023-03-21T03:06:19.314Z,-0.75
2023-03-21T03:09:23.483Z,-0.73
2023-03-21T03:11:56.404Z,-0.72
2023-03-21T03:15:02.698Z,-0.73
2023-03-21T03:17:48.352Z,-0.72
2023-03-21T03:20:33.424Z,-0.74
2023-03-21T03:23:28.742Z,-0.78
2023-03-21T03:26:10.758Z,-0.82
2023-03-21T03:28:41.652Z,-0.83
2023-03-21T03:31:16.246Z,-0.83
2023-03-21T03:33:52.258Z,-0.83
2023-03-21T03:36:31.516Z,-0.83
2023-03-21T03:39:07.463Z,-0.84
2023-03-21T03:42:21.735Z,-0.86
2023-03-21T03:44:42.674Z,-0.86
2023-03-21T03:47:33.710Z,-0.86
2023-03-21T03:50:09.847Z,-0.86
2023-03-21T03:52:55.363Z,-0.86
2023-03-21T03:55:34.869Z,-0.86
2023-03-21T03:58:21.680Z,-0.83
2023-03-21T04:00:52.665Z,-0.81
2023-03-21T04:03:24.668Z,-0.78
2023-03-21T04:05:54.289Z,-0.76
2023-03-21T04:08:23.545Z,-0.75
2023-03-21T04:10:55.462Z,-0.72
2023-03-21T04:13:24.619Z,-0.69
2023-03-21T04:16:19.562Z,-0.65
2023-03-21T04:18:49.299Z,-0.60
2023-03-21T04:21:21.843Z,-0.55
2023-03-21T04:23:51.122Z,-0.50
2023-03-21T04:26:23.119Z,-0.45
2023-03-21T04:29:09.113Z,-0.41
2023-03-21T04:31:56.723Z,-0.35
2023-03-21T04:34:28.409Z,-0.27
2023-03-21T04:37:00.175Z,-0.23
2023-03-21T04:39:29.085Z,-0.18
2023-03-21T04:41:57.818Z,-0.17
2023-03-21T04:44:26.721Z,-0.12
2023-03-21T04:46:55.366Z,-0.06
2023-03-21T04:49:24.046Z,-0.00
2023-03-21T04:51:52.810Z,0.05
2023-03-21T04:54:21.773Z,0.10
2023-03-21T04:56:57.305Z,0.16
2023-03-21T04:59:28.878Z,0.21
2023-03-21T05:01:58.829Z,0.26
2023-03-21T05:04:27.889Z,0.29
2023-03-21T05:06:58.216Z,0.31
2023-03-21T05:09:28.145Z,0.33
2023-03-21T05:11:56.974Z,0.36
2023-03-21T05:14:26.398Z,0.38
2023-03-21T05:16:57.617Z,0.41
2023-03-21T05:19:35.508Z,0.45
2023-03-21T05:22:06.619Z,0.49
2023-03-21T05:24:39.530Z,0.53
2023-03-21T05:27:14.446Z,0.59
2023-03-21T05:29:46.766Z,0.64
2023-03-21T05:32:15.516Z,0.70
2023-03-21T05:34:44.502Z,0.74
2023-03-21T05:37:14.028Z,0.77
2023-03-21T05:39:48.860Z,0.82
2023-03-21T05:42:30.021Z,0.87
2023-03-21T05:44:58.586Z,0.89
2023-03-21T05:47:34.814Z,0.95
2023-03-21T05:50:07.107Z,0.99
2023-03-21T05:52:36.311Z,1.00
2023-03-21T05:55:15.566Z,1.03
2023-03-21T05:57:44.824Z,1.07
2023-03-21T06:00:22.403Z,1.11
2023-03-21T06:02:57.114Z,1.15
2023-03-21T06:05:48.927Z,1.18
2023-03-21T06:08:23.798Z,1.23
2023-03-21T06:10:55.832Z,1.24
2023-03-21T06:13:25.530Z,1.26
2023-03-21T06:15:56.475Z,1.32
2023-03-21T06:18:29.531Z,1.36
2023-03-21T06:21:12.621Z,1.40
2023-03-21T06:23:42.637Z,1.45
2023-03-21T06:26:13.422Z,1.50
2023-03-21T06:28:42.637Z,1.55
2023-03-21T06:31:11.739Z,1.60
2023-03-21T06:33:41.254Z,1.65
2023-03-21T06:36:10.394Z,1.70
2023-03-21T06:38:39.805Z,1.76
2023-03-21T06:41:08.971Z,1.81
2023-03-21T06:43:46.454Z,1.88
2023-03-21T06:46:15.523Z,1.94
2023-03-21T06:48:46.918Z,1.99
2023-03-21T06:51:19.059Z,2.05
2023-03-21T06:54:09.104Z,2.15
2023-03-21T06:56:48.446Z,2.22
2023-03-21T06:59:22.550Z,2.31
2023-03-21T07:02:11.717Z,2.42
2023-03-21T07:04:51.170Z,2.49
2023-03-21T07:07:26.522Z,2.60
2023-03-21T07:10:11.624Z,2.71
2023-03-21T07:12:52.398Z,2.82
2023-03-21T07:15:30.677Z,2.92
2023-03-21T07:17:59.807Z,3.02
2023-03-21T07:20:28.977Z,3.13
2023-03-21T07:22:58.631Z,3.24
2023-03-21T07:25:31.251Z,3.33
2023-03-21T07:28:00.888Z,3.39
2023-03-21T07:30:29.665Z,3.44
2023-03-21T07:32:58.763Z,3.49
2023-03-21T07:35:27.453Z,3.52
2023-03-21T07:37:56.594Z,3.61
2023-03-21T07:40:25.474Z,3.68
2023-03-21T07:42:54.558Z,3.71
2023-03-21T07:45:35.663Z,3.74
2023-03-21T07:48:06.989Z,3.75
2023-03-21T07:50:35.918Z,3.75
2023-03-21T07:53:08.293Z,3.79
2023-03-21T07:55:38.018Z,3.83
2023-03-21T07:58:10.161Z,3.91
2023-03-21T08:00:39.367Z,3.99
2023-03-21T08:03:08.092Z,4.02
2023-03-21T08:05:41.715Z,4.08
2023-03-21T08:08:10.674Z,4.17
2023-03-21T08:10:39.415Z,4.28
2023-03-21T08:13:08.721Z,4.39
2023-03-21T08:15:42.595Z,4.47
2023-03-21T08:18:11.708Z,4.56
2023-03-21T08:20:42.620Z,4.67
2023-03-21T08:23:12.072Z,4.79
2023-03-21T08:25:41.493Z,4.90
2023-03-21T08:28:10.903Z,5.00
2023-03-21T08:30:39.796Z,5.12
2023-03-21T08:33:13.496Z,5.23
2023-03-21T08:35:47.073Z,5.40
2023-03-21T08:38:17.669Z,5.54
2023-03-21T08:40:46.430Z,5.68
2023-03-21T08:43:16.671Z,5.82
2023-03-21T08:45:45.489Z,5.94
2023-03-21T08:48:21.290Z,6.14
2023-03-21T08:50:50.764Z,6.38
2023-03-21T08:53:19.706Z,6.59
2023-03-21T08:55:50.167Z,6.75
2023-03-21T08:58:18.718Z,6.93
2023-03-21T09:00:47.300Z,7.11
2023-03-21T09:03:16.605Z,7.30
2023-03-21T09:05:48.051Z,7.46
2023-03-21T09:08:17.040Z,7.56
2023-03-21T09:10:45.744Z,7.67
2023-03-21T09:13:17.127Z,7.76
2023-03-21T09:15:46.756Z,7.80
2023-03-21T09:18:23.462Z,7.82
2023-03-21T09:20:55.755Z,7.83
2023-03-21T09:23:25.535Z,7.85
2023-03-21T09:25:54.240Z,7.88
2023-03-21T09:28:25.262Z,7.95
2023-03-21T09:30:55.678Z,8.05
2023-03-21T09:33:26.154Z,8.14
2023-03-21T09:35:55.440Z,8.23
2023-03-21T09:38:30.756Z,8.34
2023-03-21T09:41:20.245Z,8.46
2023-03-21T09:44:28.495Z,8.62
2023-03-21T09:47:29.501Z,8.73
2023-03-21T09:50:14.160Z,8.81
2023-03-21T09:53:01.921Z,8.91
2023-03-21T09:55:32.323Z,9.00
2023-03-21T09:58:26.438Z,9.09
2023-03-21T10:01:28.899Z,9.26
2023-03-21T10:04:06.648Z,9.44
2023-03-21T10:06:39.366Z,9.53
2023-03-21T10:09:23.078Z,9.65
2023-03-21T10:12:08.489Z,9.75
2023-03-21T10:14:40.541Z,9.83
2023-03-21T10:17:18.299Z,9.91
2023-03-21T10:19:48.322Z,9.97
2023-03-21T10:22:20.288Z,10.06
2023-03-21T10:24:49.141Z,10.11
2023-03-21T10:27:18.221Z,10.16
2023-03-21T10:29:47.452Z,10.18
2023-03-21T10:32:17.097Z,10.16
2023-03-21T10:34:50.927Z,10.16
2023-03-21T10:37:19.791Z,10.17
2023-03-21T10:39:53.808Z,10.21
2023-03-21T10:42:28.612Z,10.29
2023-03-21T10:45:00.409Z,10.35
2023-03-21T10:47:34.318Z,10.43
2023-03-21T10:50:08.115Z,10.58
2023-03-21T10:52:46.493Z,10.72
2023-03-21T10:55:32.380Z,10.85
2023-03-21T10:58:08.869Z,10.95
2023-03-21T11:00:41.550Z,11.01
2023-03-21T11:03:23.082Z,10.98
2023-03-21T11:05:57.914Z,10.93
2023-03-21T11:08:27.754Z,10.92
2023-03-21T11:11:08.465Z,10.89
2023-03-21T11:13:43.130Z,10.99
2023-03-21T11:16:33.497Z,11.16
2023-03-21T11:19:34.089Z,11.31
2023-03-21T11:22:06.801Z,11.45
2023-03-21T11:24:38.058Z,11.56
2023-03-21T11:27:07.613Z,11.67
2023-03-21T11:29:39.271Z,11.81
2023-03-21T11:32:23.011Z,11.98
2023-03-21T11:35:04.662Z,12.17
2023-03-21T11:37:38.512Z,12.31
2023-03-21T11:40:40.097Z,12.43
2023-03-21T11:43:18.297Z,12.68
2023-03-21T11:46:05.567Z,12.93
2023-03-21T11:48:38.849Z,13.17
2023-03-21T11:51:30.754Z,13.30
2023-03-21T11:54:19.994Z,13.33
2023-03-21T11:56:54.534Z,13.37
2023-03-21T11:59:40.899Z,13.45
2023-03-21T12:02:55.316Z,13.48
2023-03-21T12:05:27.127Z,13.62
2023-03-21T12:07:58.957Z,13.80
2023-03-21T12:10:50.202Z,14.00
2023-03-21T12:13:56.044Z,14.19
2023-03-21T12:16:37.188Z,14.22
2023-03-21T12:19:31.108Z,14.23
2023-03-21T12:22:18.351Z,14.34
2023-03-21T12:24:50.110Z,14.45
2023-03-21T12:27:43.537Z,14.47
2023-03-21T12:30:41.491Z,14.59
2023-03-21T12:33:21.060Z,14.66
2023-03-21T12:36:11.553Z,14.65
2023-03-21T12:38:47.822Z,14.86
2023-03-21T12:41:27.653Z,14.85
2023-03-21T12:44:12.107Z,14.73
2023-03-21T12:47:20.051Z,14.70
2023-03-21T12:50:21.625Z,14.79
2023-03-21T12:52:54.753Z,15.01
2023-03-21T12:55:26.746Z,15.09
2023-03-21T12:58:10.738Z,15.03
2023-03-21T13:00:44.154Z,14.80
2023-03-21T13:03:40.129Z,14.64
2023-03-21T13:06:10.894Z,14.76
2023-03-21T13:08:48.979Z,14.90
2023-03-21T13:11:23.224Z,14.93
2023-03-21T13:14:17.050Z,14.78
2023-03-21T13:17:01.300Z,14.53
2023-03-21T13:19:39.318Z,14.31
2023-03-21T13:22:21.590Z,14.28
2023-03-21T13:24:52.469Z,14.44
2023-03-21T13:27:34.882Z,14.50
2023-03-21T13:30:09.899Z,14.44
2023-03-21T13:32:39.994Z,14.42
2023-03-21T13:35:34.835Z,14.47
2023-03-21T13:38:15.069Z,14.29
2023-03-21T13:40:44.678Z,13.96
2023-03-21T13:43:55.478Z,13.70
2023-03-21T13:46:25.325Z,13.48
2023-03-21T13:49:00.201Z,13.34
2023-03-21T13:51:31.180Z,13.20
2023-03-21T13:54:10.000Z,13.03
2023-03-21T13:56:48.822Z,12.91
2023-03-21T13:59:18.962Z,12.83
2023-03-21T14:02:16.203Z,12.78
2023-03-21T14:05:03.754Z,12.77
2023-03-21T14:07:42.177Z,12.82
2023-03-21T14:10:38.906Z,12.92
2023-03-21T14:13:10.096Z,12.96
2023-03-21T14:15:49.722Z,12.91
2023-03-21T14:18:35.104Z,12.87
2023-03-21T14:21:23.347Z,12.77
2023-03-21T14:24:05.777Z,12.66
2023-03-21T14:26:36.732Z,12.60
2023-03-21T14:29:25.265Z,12.52
2023-03-21T14:31:56.832Z,12.45
2023-03-21T14:34:31.529Z,12.39
2023-03-21T14:37:03.178Z,12.34
2023-03-21T14:39:33.575Z,12.30
2023-03-21T14:42:07.560Z,12.25
2023-03-21T14:44:54.488Z,12.22
2023-03-21T14:47:26.261Z,12.17
2023-03-21T14:49:55.942Z,12.13
2023-03-21T14:52:31.310Z,12.06
2023-03-21T14:55:03.735Z,11.99
2023-03-21T14:57:33.991Z,11.93
2023-03-21T15:00:16.051Z,11.87
2023-03-21T15:02:46.582Z,11.82
2023-03-21T15:05:32.000Z,11.76
2023-03-21T15:08:29.587Z,11.71
2023-03-21T15:11:10.882Z,11.65
2023-03-21T15:13:52.806Z,11.59
2023-03-21T15:16:22.016Z,11.51
2023-03-21T15:18:51.005Z,11.45
2023-03-21T15:21:31.052Z,11.39
2023-03-21T15:24:08.643Z,11.33
2023-03-21T15:26:46.981Z,11.26
2023-03-21T15:29:16.476Z,11.22
2023-03-21T15:31:47.516Z,11.17
2023-03-21T15:34:24.528Z,11.11
2023-03-21T15:37:07.362Z,11.04
2023-03-21T15:39:46.292Z,10.99
2023-03-21T15:42:51.103Z,10.95
2023-03-21T15:45:25.852Z,10.84
2023-03-21T15:48:03.365Z,10.75
2023-03-21T15:50:33.689Z,10.67
2023-03-21T15:53:06.038Z,10.58
2023-03-21T15:55:43.067Z,10.47
2023-03-21T15:58:18.994Z,10.38
2023-03-21T16:00:52.686Z,10.31
2023-03-21T16:03:25.186Z,10.25
2023-03-21T16:06:10.936Z,10.17
2023-03-21T16:08:50.513Z,10.09
2023-03-21T16:11:27.152Z,10.02
2023-03-21T16:13:56.579Z,9.96
2023-03-21T16:16:27.094Z,9.90
2023-03-21T16:19:02.798Z,9.84
2023-03-21T16:21:34.531Z,9.77
2023-03-21T16:24:03.311Z,9.70
2023-03-21T16:26:33.852Z,9.63
2023-03-21T16:29:02.635Z,9.57
2023-03-21T16:31:35.915Z,9.51
2023-03-21T16:34:08.284Z,9.44
2023-03-21T16:36:38.743Z,9.37
2023-03-21T16:39:19.707Z,9.31
2023-03-21T16:41:48.641Z,9.26
2023-03-21T16:44:17.471Z,9.20
2023-03-21T16:46:47.537Z,9.14
2023-03-21T16:49:24.955Z,9.09
2023-03-21T16:51:54.777Z,9.03
2023-03-21T16:54:23.774Z,8.95
2023-03-21T16:56:53.877Z,8.90
2023-03-21T16:59:22.619Z,8.84
2023-03-21T17:01:52.489Z,8.80
2023-03-21T17:04:22.278Z,8.75
2023-03-21T17:06:52.597Z,8.70
2023-03-21T17:09:23.435Z,8.65
2023-03-21T17:11:53.127Z,8.61
2023-03-21T17:14:23.500Z,8.52
2023-03-21T17:16:52.138Z,8.46
2023-03-21T17:19:26.502Z,8.39
2023-03-21T17:21:55.554Z,8.31
2023-03-21T17:24:26.495Z,8.25
2023-03-21T17:26:55.737Z,8.16
2023-03-21T17:29:24.629Z,8.08
2023-03-21T17:31:55.063Z,7.99
2023-03-21T17:34:24.172Z,7.89
2023-03-21T17:36:56.635Z,7.82
2023-03-21T17:39:25.986Z,7.74
2023-03-21T17:41:55.024Z,7.67
2023-03-21T17:44:23.620Z,7.59
2023-03-21T17:46:54.808Z,7.51
2023-03-21T17:49:23.728Z,7.45
2023-03-21T17:51:53.773Z,7.38
2023-03-21T17:54:22.689Z,7.31
2023-03-21T17:56:51.826Z,7.23
2023-03-21T17:59:20.614Z,7.17
2023-03-21T18:01:56.250Z,7.10
2023-03-21T18:04:25.485Z,7.05
2023-03-21T18:06:57.482Z,7.01
2023-03-21T18:09:28.800Z,6.96
2023-03-21T18:11:59.030Z,6.90
2023-03-21T18:14:29.167Z,6.84
2023-03-21T18:16:59.380Z,6.79
2023-03-21T18:19:28.684Z,6.74
2023-03-21T18:22:04.228Z,6.67
2023-03-21T18:24:33.166Z,6.61
2023-03-21T18:27:03.307Z,6.54
2023-03-21T18:32:23.294Z,6.40
2023-03-21T18:34:52.324Z,6.32
2023-03-21T18:37:22.111Z,6.26
2023-03-21T18:39:51.874Z,6.21
2023-03-21T18:42:23.561Z,6.16
2023-03-21T18:44:52.824Z,6.14
2023-03-21T18:47:21.717Z,6.10
2023-03-21T18:52:41.606Z,5.97
2023-03-21T18:55:10.662Z,5.92
2023-03-21T18:57:40.876Z,5.86
2023-03-21T19:00:17.375Z,5.80
2023-03-21T19:02:49.099Z,5.74
2023-03-21T19:05:22.980Z,5.66
2023-03-21T19:07:52.567Z,5.58
2023-03-21T19:10:23.132Z,5.51
2023-03-21T19:12:53.089Z,5.44
2023-03-21T19:15:24.417Z,5.38
2023-03-21T19:20:48.024Z,5.23
2023-03-21T19:23:18.775Z,5.18
2023-03-21T19:25:47.825Z,5.13
2023-03-21T19:28:16.862Z,5.08
2023-03-21T19:30:50.288Z,5.01
2023-03-21T19:33:24.732Z,4.94
2023-03-21T19:36:09.190Z,4.87
2023-03-21T19:38:42.115Z,4.79
2023-03-21T19:41:11.280Z,4.74
2023-03-21T19:43:40.307Z,4.70
2023-03-21T19:46:14.932Z,4.66
2023-03-21T19:48:45.194Z,4.60
2023-03-21T19:51:27.552Z,4.55
2023-03-21T19:53:59.350Z,4.52
2023-03-21T19:56:28.241Z,4.49
2023-03-21T19:58:57.165Z,4.47
2023-03-21T20:01:26.931Z,4.43
2023-03-21T20:03:57.689Z,4.38
2023-03-21T20:06:28.573Z,4.33
2023-03-21T20:09:42.898Z,4.30
2023-03-21T20:11:48.545Z,4.28
2023-03-21T20:14:17.754Z,4.26
2023-03-21T20:16:46.896Z,4.23
2023-03-21T20:19:17.310Z,4.21
2023-03-21T20:21:56.911Z,4.19
2023-03-21T20:24:36.937Z,4.16
2023-03-21T20:27:06.476Z,4.13
2023-03-21T20:32:30.407Z,4.09
2023-03-21T20:35:13.731Z,4.03
2023-03-21T20:37:54.141Z,3.97
2023-03-21T20:40:23.275Z,3.94
2023-03-21T20:42:52.222Z,3.92
2023-03-21T20:45:21.310Z,3.90
2023-03-21T20:47:50.202Z,3.90
2023-03-21T20:50:27.893Z,3.87
2023-03-21T20:53:06.835Z,3.86
2023-03-21T20:55:36.857Z,3.87
2023-03-21T20:58:26.880Z,3.85
2023-03-21T21:00:54.654Z,3.83
2023-03-21T21:03:26.008Z,3.83
2023-03-21T21:05:55.153Z,3.79
2023-03-21T21:08:27.558Z,3.76
2023-03-21T21:11:45.460Z,3.72
2023-03-21T21:13:45.797Z,3.69
2023-03-21T21:16:17.254Z,3.66
2023-03-21T21:18:49.746Z,3.64
2023-03-21T21:21:18.249Z,3.63
2023-03-21T21:23:54.556Z,3.62
2023-03-21T21:26:23.195Z,3.61
2023-03-21T21:28:53.456Z,3.58
2023-03-21T21:31:22.517Z,3.55
2023-03-21T21:33:54.285Z,3.52
2023-03-21T21:36:28.281Z,3.49
2023-03-21T21:38:57.111Z,3.47
2023-03-21T21:41:26.210Z,3.45
2023-03-21T21:43:55.720Z,3.41
2023-03-21T21:46:24.522Z,3.39
2023-03-21T21:48:59.784Z,3.37
2023-03-21T21:51:29.123Z,3.35
2023-03-21T21:53:58.314Z,3.32
2023-03-21T21:56:32.281Z,3.31
2023-03-21T21:59:02.217Z,3.31
2023-03-21T22:01:34.974Z,3.31
2023-03-21T22:04:08.388Z,3.32
2023-03-21T22:06:41.625Z,3.30
2023-03-21T22:09:11.162Z,3.27
2023-03-21T22:11:39.716Z,3.25
2023-03-21T22:14:08.307Z,3.24
2023-03-21T22:16:37.125Z,3.22
2023-03-21T22:19:06.444Z,3.22
2023-03-21T22:21:35.163Z,3.22
2023-03-21T22:24:07.442Z,3.18
2023-03-21T22:26:36.425Z,3.16
2023-03-21T22:29:10.259Z,3.15
2023-03-21T22:31:42.185Z,3.13
2023-03-21T22:34:11.394Z,3.12
2023-03-21T22:36:47.182Z,3.10
2023-03-21T22:39:18.860Z,3.07
2023-03-21T22:41:49.145Z,3.04
2023-03-21T22:44:18.629Z,3.01
2023-03-21T22:46:47.242Z,2.98
2023-03-21T22:49:18.127Z,2.97
2023-03-21T22:52:22.121Z,2.93
2023-03-21T22:54:52.237Z,2.89
2023-03-21T22:57:23.850Z,2.85
2023-03-21T22:59:52.762Z,2.82
2023-03-21T23:02:21.677Z,2.79
2023-03-21T23:04:51.078Z,2.78
2023-03-21T23:07:22.630Z,2.76
2023-03-21T23:09:51.668Z,2.74
2023-03-21T23:12:21.108Z,2.74
2023-03-21T23:14:53.847Z,2.74
2023-03-21T23:17:23.797Z,2.75
2023-03-21T23:19:52.650Z,2.77
2023-03-21T23:22:29.071Z,2.77
2023-03-21T23:24:58.778Z,2.78
2023-03-21T23:27:31.024Z,2.76
2023-03-21T23:30:00.465Z,2.75
2023-03-21T23:32:31.386Z,2.76
2023-03-21T23:35:00.202Z,2.76
2023-03-21T23:37:32.986Z,2.75
2023-03-21T23:40:01.623Z,2.74
2023-03-21T23:42:30.953Z,2.75
2023-03-21T23:44:59.959Z,2.75
2023-03-21T23:47:32.428Z,2.76
2023-03-21T23:50:01.466Z,2.77
2023-03-21T23:52:30.372Z,2.77
2023-03-21T23:54:59.097Z,2.75
2023-03-21T23:57:27.797Z,2.75
2023-03-21T23:59:57.974Z,2.75
